sensor_id;sensor_type;location;lat;lon;timestamp;P1;durP1;ratioP1;P2;durP2;ratioP2
36547;SDS011;22551;52.206;4.856;2022-12-18T00:02:57;63.58;;;19.02;;
36547;SDS011;22551;52.206;4.856;2022-12-18T00:08:00;66.82;;;20.67;;
36547;SDS011;22551;52.206;4.856;2022-12-18T00:13:02;80.55;;;20.70;;
36547;SDS011;22551;52.206;4.856;2022-12-18T00:18:11;58.67;;;14.05;;
36547;SDS011;22551;52.206;4.856;2022-12-18T00:23:17;81.30;;;20.30;;
36547;SDS011;22551;52.206;4.856;2022-12-18T00:28:20;81.97;;;21.83;;
36547;SDS011;22551;52.206;4.856;2022-12-18T00:33:26;72.60;;;19.65;;
36547;SDS011;22551;52.206;4.856;2022-12-18T00:38:30;69.93;;;18.80;;
36547;SDS011;22551;52.206;4.856;2022-12-18T00:43:35;83.97;;;24.08;;
36547;SDS011;22551;52.206;4.856;2022-12-18T00:48:41;79.00;;;21.85;;
36547;SDS011;22551;52.206;4.856;2022-12-18T00:53:44;67.13;;;19.73;;
36547;SDS011;22551;52.206;4.856;2022-12-18T00:58:46;57.65;;;17.20;;
36547;SDS011;22551;52.206;4.856;2022-12-18T01:03:54;70.13;;;20.08;;
36547;SDS011;22551;52.206;4.856;2022-12-18T01:08:59;71.57;;;20.35;;
36547;SDS011;22551;52.206;4.856;2022-12-18T01:14:01;63.03;;;19.02;;
36547;SDS011;22551;52.206;4.856;2022-12-18T01:19:06;67.13;;;17.58;;
36547;SDS011;22551;52.206;4.856;2022-12-18T01:24:09;59.97;;;17.77;;
36547;SDS011;22551;52.206;4.856;2022-12-18T01:29:14;58.90;;;17.38;;
36547;SDS011;22551;52.206;4.856;2022-12-18T01:34:18;57.33;;;18.48;;
36547;SDS011;22551;52.206;4.856;2022-12-18T01:39:20;48.10;;;15.35;;
36547;SDS011;22551;52.206;4.856;2022-12-18T01:50:04;52.45;;;16.10;;
36547;SDS011;22551;52.206;4.856;2022-12-18T01:55:11;51.60;;;15.50;;
36547;SDS011;22551;52.206;4.856;2022-12-18T02:00:17;63.08;;;18.38;;
36547;SDS011;22551;52.206;4.856;2022-12-18T02:05:26;48.17;;;15.98;;
36547;SDS011;22551;52.206;4.856;2022-12-18T02:10:41;52.90;;;15.48;;
36547;SDS011;22551;52.206;4.856;2022-12-18T02:15:54;59.55;;;17.35;;
36547;SDS011;22551;52.206;4.856;2022-12-18T02:21:10;45.47;;;14.85;;
36547;SDS011;22551;52.206;4.856;2022-12-18T02:26:22;48.70;;;16.08;;
36547;SDS011;22551;52.206;4.856;2022-12-18T02:31:31;59.00;;;16.98;;
36547;SDS011;22551;52.206;4.856;2022-12-18T02:36:42;57.25;;;15.32;;
36547;SDS011;22551;52.206;4.856;2022-12-18T02:41:49;42.17;;;12.43;;
36547;SDS011;22551;52.206;4.856;2022-12-18T02:46:54;52.40;;;15.20;;
36547;SDS011;22551;52.206;4.856;2022-12-18T02:52:01;43.92;;;14.55;;
36547;SDS011;22551;52.206;4.856;2022-12-18T02:57:14;39.95;;;14.38;;
36547;SDS011;22551;52.206;4.856;2022-12-18T03:02:23;58.92;;;15.77;;
36547;SDS011;22551;52.206;4.856;2022-12-18T03:07:34;55.28;;;16.02;;
36547;SDS011;22551;52.206;4.856;2022-12-18T03:12:42;53.78;;;15.93;;
36547;SDS011;22551;52.206;4.856;2022-12-18T03:17:50;49.45;;;14.90;;
36547;SDS011;22551;52.206;4.856;2022-12-18T03:22:59;53.38;;;16.70;;
36547;SDS011;22551;52.206;4.856;2022-12-18T03:28:09;42.20;;;16.20;;
36547;SDS011;22551;52.206;4.856;2022-12-18T03:33:19;50.55;;;17.73;;
36547;SDS011;22551;52.206;4.856;2022-12-18T03:38:27;58.15;;;15.82;;
36547;SDS011;22551;52.206;4.856;2022-12-18T03:43:34;50.53;;;15.65;;
36547;SDS011;22551;52.206;4.856;2022-12-18T03:48:51;50.53;;;15.65;;
36547;SDS011;22551;52.206;4.856;2022-12-18T03:54:01;52.83;;;15.63;;
36547;SDS011;22551;52.206;4.856;2022-12-18T03:59:07;61.95;;;17.83;;
36547;SDS011;22551;52.206;4.856;2022-12-18T04:04:12;46.40;;;16.85;;
36547;SDS011;22551;52.206;4.856;2022-12-18T04:09:16;50.15;;;15.93;;
36547;SDS011;22551;52.206;4.856;2022-12-18T04:14:21;44.88;;;15.15;;
36547;SDS011;22551;52.206;4.856;2022-12-18T04:19:23;43.45;;;15.63;;
36547;SDS011;22551;52.206;4.856;2022-12-18T04:24:25;52.47;;;16.23;;
36547;SDS011;22551;52.206;4.856;2022-12-18T04:29:29;39.88;;;14.10;;
36547;SDS011;22551;52.206;4.856;2022-12-18T04:34:32;48.20;;;15.25;;
36547;SDS011;22551;52.206;4.856;2022-12-18T04:39:34;42.63;;;14.45;;
36547;SDS011;22551;52.206;4.856;2022-12-18T04:44:38;55.00;;;15.57;;
36547;SDS011;22551;52.206;4.856;2022-12-18T04:49:40;55.40;;;17.50;;
36547;SDS011;22551;52.206;4.856;2022-12-18T04:54:42;44.85;;;16.45;;
36547;SDS011;22551;52.206;4.856;2022-12-18T04:59:47;50.40;;;14.50;;
36547;SDS011;22551;52.206;4.856;2022-12-18T05:04:50;46.53;;;15.48;;
36547;SDS011;22551;52.206;4.856;2022-12-18T05:09:52;39.35;;;13.82;;
36547;SDS011;22551;52.206;4.856;2022-12-18T05:14:56;45.28;;;14.48;;
36547;SDS011;22551;52.206;4.856;2022-12-18T05:19:58;47.40;;;15.13;;
36547;SDS011;22551;52.206;4.856;2022-12-18T05:25:00;37.80;;;13.32;;
36547;SDS011;22551;52.206;4.856;2022-12-18T05:30:05;43.25;;;15.65;;
36547;SDS011;22551;52.206;4.856;2022-12-18T05:35:10;44.65;;;13.30;;
36547;SDS011;22551;52.206;4.856;2022-12-18T05:40:12;39.97;;;13.73;;
36547;SDS011;22551;52.206;4.856;2022-12-18T05:45:16;43.42;;;14.43;;
36547;SDS011;22551;52.206;4.856;2022-12-18T05:50:19;42.15;;;15.32;;
36547;SDS011;22551;52.206;4.856;2022-12-18T05:55:21;44.85;;;15.30;;
36547;SDS011;22551;52.206;4.856;2022-12-18T06:00:25;46.55;;;17.15;;
36547;SDS011;22551;52.206;4.856;2022-12-18T06:05:27;49.38;;;15.98;;
36547;SDS011;22551;52.206;4.856;2022-12-18T06:10:30;41.40;;;16.88;;
36547;SDS011;22551;52.206;4.856;2022-12-18T06:15:35;38.63;;;14.10;;
36547;SDS011;22551;52.206;4.856;2022-12-18T06:20:39;40.97;;;15.30;;
36547;SDS011;22551;52.206;4.856;2022-12-18T06:25:41;43.38;;;15.25;;
36547;SDS011;22551;52.206;4.856;2022-12-18T06:30:45;52.42;;;15.88;;
36547;SDS011;22551;52.206;4.856;2022-12-18T06:35:48;39.40;;;15.47;;
36547;SDS011;22551;52.206;4.856;2022-12-18T06:40:50;48.58;;;15.48;;
36547;SDS011;22551;52.206;4.856;2022-12-18T06:45:58;45.88;;;14.27;;
36547;SDS011;22551;52.206;4.856;2022-12-18T06:51:09;35.85;;;14.77;;
36547;SDS011;22551;52.206;4.856;2022-12-18T06:56:11;37.50;;;14.38;;
36547;SDS011;22551;52.206;4.856;2022-12-18T07:01:22;35.20;;;13.73;;
36547;SDS011;22551;52.206;4.856;2022-12-18T07:06:25;31.85;;;12.75;;
36547;SDS011;22551;52.206;4.856;2022-12-18T07:11:27;34.65;;;11.25;;
36547;SDS011;22551;52.206;4.856;2022-12-18T07:16:31;35.42;;;12.68;;
36547;SDS011;22551;52.206;4.856;2022-12-18T07:21:36;31.13;;;11.25;;
36547;SDS011;22551;52.206;4.856;2022-12-18T07:26:38;28.13;;;11.23;;
36547;SDS011;22551;52.206;4.856;2022-12-18T07:31:42;32.30;;;11.75;;
36547;SDS011;22551;52.206;4.856;2022-12-18T07:36:44;25.92;;;10.73;;
36547;SDS011;22551;52.206;4.856;2022-12-18T07:41:50;29.83;;;11.40;;
36547;SDS011;22551;52.206;4.856;2022-12-18T07:52:09;27.27;;;11.52;;
36547;SDS011;22551;52.206;4.856;2022-12-18T07:57:18;25.08;;;10.32;;
36547;SDS011;22551;52.206;4.856;2022-12-18T08:02:24;25.10;;;11.45;;
36547;SDS011;22551;52.206;4.856;2022-12-18T08:07:27;33.03;;;13.25;;
36547;SDS011;22551;52.206;4.856;2022-12-18T08:12:29;25.75;;;10.50;;
36547;SDS011;22551;52.206;4.856;2022-12-18T08:17:34;26.42;;;10.25;;
36547;SDS011;22551;52.206;4.856;2022-12-18T08:22:38;16.33;;;7.83;;
36547;SDS011;22551;52.206;4.856;2022-12-18T08:27:40;34.45;;;10.35;;
36547;SDS011;22551;52.206;4.856;2022-12-18T08:32:44;24.52;;;11.48;;
36547;SDS011;22551;52.206;4.856;2022-12-18T08:37:49;30.58;;;12.07;;
36547;SDS011;22551;52.206;4.856;2022-12-18T08:42:51;28.20;;;11.73;;
36547;SDS011;22551;52.206;4.856;2022-12-18T08:48:16;26.00;;;11.82;;
36547;SDS011;22551;52.206;4.856;2022-12-18T08:53:21;25.90;;;11.90;;
36547;SDS011;22551;52.206;4.856;2022-12-18T08:58:29;23.08;;;9.93;;
36547;SDS011;22551;52.206;4.856;2022-12-18T09:03:41;21.83;;;10.60;;
36547;SDS011;22551;52.206;4.856;2022-12-18T09:08:49;25.63;;;10.95;;
36547;SDS011;22551;52.206;4.856;2022-12-18T09:13:51;27.48;;;10.73;;
36547;SDS011;22551;52.206;4.856;2022-12-18T09:18:56;25.25;;;11.05;;
36547;SDS011;22551;52.206;4.856;2022-12-18T09:24:00;29.77;;;10.88;;
36547;SDS011;22551;52.206;4.856;2022-12-18T09:29:03;25.50;;;10.75;;
36547;SDS011;22551;52.206;4.856;2022-12-18T09:34:08;21.63;;;10.65;;
36547;SDS011;22551;52.206;4.856;2022-12-18T09:39:11;28.70;;;10.80;;
36547;SDS011;22551;52.206;4.856;2022-12-18T09:44:15;20.65;;;10.32;;
36547;SDS011;22551;52.206;4.856;2022-12-18T09:49:27;25.80;;;11.13;;
36547;SDS011;22551;52.206;4.856;2022-12-18T09:54:35;24.55;;;11.30;;
36547;SDS011;22551;52.206;4.856;2022-12-18T09:59:48;27.35;;;11.60;;
36547;SDS011;22551;52.206;4.856;2022-12-18T10:05:04;21.40;;;10.50;;
36547;SDS011;22551;52.206;4.856;2022-12-18T10:10:14;27.38;;;11.27;;
36547;SDS011;22551;52.206;4.856;2022-12-18T10:15:34;24.77;;;10.85;;
36547;SDS011;22551;52.206;4.856;2022-12-18T10:20:54;26.92;;;9.90;;
36547;SDS011;22551;52.206;4.856;2022-12-18T10:26:06;24.70;;;12.32;;
36547;SDS011;22551;52.206;4.856;2022-12-18T10:31:12;24.55;;;10.25;;
36547;SDS011;22551;52.206;4.856;2022-12-18T10:36:19;25.55;;;11.52;;
36547;SDS011;22551;52.206;4.856;2022-12-18T10:41:23;22.33;;;10.50;;
36547;SDS011;22551;52.206;4.856;2022-12-18T10:46:27;32.30;;;12.60;;
36547;SDS011;22551;52.206;4.856;2022-12-18T10:51:32;26.63;;;11.13;;
36547;SDS011;22551;52.206;4.856;2022-12-18T10:56:37;27.15;;;9.82;;
36547;SDS011;22551;52.206;4.856;2022-12-18T11:01:47;23.13;;;10.98;;
36547;SDS011;22551;52.206;4.856;2022-12-18T11:06:57;24.83;;;10.63;;
36547;SDS011;22551;52.206;4.856;2022-12-18T11:12:02;22.90;;;9.60;;
36547;SDS011;22551;52.206;4.856;2022-12-18T11:22:28;25.40;;;11.35;;
36547;SDS011;22551;52.206;4.856;2022-12-18T11:27:32;27.05;;;10.60;;
36547;SDS011;22551;52.206;4.856;2022-12-18T11:32:35;22.70;;;10.88;;
36547;SDS011;22551;52.206;4.856;2022-12-18T11:37:41;24.42;;;10.18;;
36547;SDS011;22551;52.206;4.856;2022-12-18T11:42:51;23.65;;;9.95;;
36547;SDS011;22551;52.206;4.856;2022-12-18T11:48:03;21.90;;;10.40;;
36547;SDS011;22551;52.206;4.856;2022-12-18T11:53:15;22.35;;;10.43;;
36547;SDS011;22551;52.206;4.856;2022-12-18T11:58:21;26.23;;;10.90;;
36547;SDS011;22551;52.206;4.856;2022-12-18T12:03:39;27.38;;;11.77;;
36547;SDS011;22551;52.206;4.856;2022-12-18T12:09:46;22.73;;;10.30;;
36547;SDS011;22551;52.206;4.856;2022-12-18T12:15:02;21.17;;;10.52;;
36547;SDS011;22551;52.206;4.856;2022-12-18T12:20:17;24.08;;;10.50;;
36547;SDS011;22551;52.206;4.856;2022-12-18T12:25:28;25.33;;;11.50;;
36547;SDS011;22551;52.206;4.856;2022-12-18T12:30:41;27.20;;;10.60;;
36547;SDS011;22551;52.206;4.856;2022-12-18T12:35:56;24.70;;;11.32;;
36547;SDS011;22551;52.206;4.856;2022-12-18T12:41:23;25.80;;;10.75;;
36547;SDS011;22551;52.206;4.856;2022-12-18T12:46:46;27.90;;;10.60;;
36547;SDS011;22551;52.206;4.856;2022-12-18T12:51:52;22.10;;;10.40;;
36547;SDS011;22551;52.206;4.856;2022-12-18T12:57:05;26.00;;;10.60;;
36547;SDS011;22551;52.206;4.856;2022-12-18T13:02:14;24.73;;;11.70;;
36547;SDS011;22551;52.206;4.856;2022-12-18T13:07:25;18.27;;;9.07;;
36547;SDS011;22551;52.206;4.856;2022-12-18T13:12:48;26.63;;;10.95;;
36547;SDS011;22551;52.206;4.856;2022-12-18T13:23:26;28.98;;;12.27;;
36547;SDS011;22551;52.206;4.856;2022-12-18T13:28:51;20.60;;;11.07;;
36547;SDS011;22551;52.206;4.856;2022-12-18T13:33:59;23.88;;;10.95;;
36547;SDS011;22551;52.206;4.856;2022-12-18T13:39:22;23.23;;;9.57;;
36547;SDS011;22551;52.206;4.856;2022-12-18T13:44:34;23.70;;;10.75;;
36547;SDS011;22551;52.206;4.856;2022-12-18T13:49:41;23.45;;;10.65;;
36547;SDS011;22551;52.206;4.856;2022-12-18T13:54:47;23.45;;;11.00;;
36547;SDS011;22551;52.206;4.856;2022-12-18T13:59:58;24.05;;;10.82;;
36547;SDS011;22551;52.206;4.856;2022-12-18T14:05:26;23.88;;;10.70;;
36547;SDS011;22551;52.206;4.856;2022-12-18T14:15:39;22.77;;;10.10;;
36547;SDS011;22551;52.206;4.856;2022-12-18T14:20:47;26.48;;;10.88;;
36547;SDS011;22551;52.206;4.856;2022-12-18T14:25:54;29.17;;;12.02;;
36547;SDS011;22551;52.206;4.856;2022-12-18T14:30:58;25.88;;;11.52;;
36547;SDS011;22551;52.206;4.856;2022-12-18T14:36:02;25.40;;;10.45;;
36547;SDS011;22551;52.206;4.856;2022-12-18T14:41:09;24.48;;;10.75;;
36547;SDS011;22551;52.206;4.856;2022-12-18T14:46:29;25.83;;;10.52;;
36547;SDS011;22551;52.206;4.856;2022-12-18T14:51:36;24.58;;;10.43;;
36547;SDS011;22551;52.206;4.856;2022-12-18T14:56:42;35.95;;;11.70;;
36547;SDS011;22551;52.206;4.856;2022-12-18T15:01:53;22.25;;;10.88;;
36547;SDS011;22551;52.206;4.856;2022-12-18T15:07:04;26.02;;;10.50;;
36547;SDS011;22551;52.206;4.856;2022-12-18T15:12:19;21.95;;;9.60;;
36547;SDS011;22551;52.206;4.856;2022-12-18T15:17:31;25.90;;;11.30;;
36547;SDS011;22551;52.206;4.856;2022-12-18T15:22:37;23.80;;;11.25;;
36547;SDS011;22551;52.206;4.856;2022-12-18T15:27:41;27.13;;;11.52;;
36547;SDS011;22551;52.206;4.856;2022-12-18T15:32:50;26.77;;;10.75;;
36547;SDS011;22551;52.206;4.856;2022-12-18T15:37:56;24.52;;;11.07;;
36547;SDS011;22551;52.206;4.856;2022-12-18T15:42:59;20.52;;;9.90;;
36547;SDS011;22551;52.206;4.856;2022-12-18T15:48:33;24.55;;;11.73;;
36547;SDS011;22551;52.206;4.856;2022-12-18T15:53:41;25.77;;;11.20;;
36547;SDS011;22551;52.206;4.856;2022-12-18T15:58:44;22.13;;;10.68;;
36547;SDS011;22551;52.206;4.856;2022-12-18T16:03:50;26.58;;;12.05;;
36547;SDS011;22551;52.206;4.856;2022-12-18T16:08:54;27.17;;;10.75;;
36547;SDS011;22551;52.206;4.856;2022-12-18T16:13:58;27.35;;;11.50;;
36547;SDS011;22551;52.206;4.856;2022-12-18T16:19:06;25.70;;;11.03;;
36547;SDS011;22551;52.206;4.856;2022-12-18T16:24:14;22.20;;;10.45;;
36547;SDS011;22551;52.206;4.856;2022-12-18T16:29:23;25.13;;;11.02;;
36547;SDS011;22551;52.206;4.856;2022-12-18T16:34:35;25.73;;;11.63;;
36547;SDS011;22551;52.206;4.856;2022-12-18T16:39:45;25.63;;;10.73;;
36547;SDS011;22551;52.206;4.856;2022-12-18T16:44:48;24.08;;;10.40;;
36547;SDS011;22551;52.206;4.856;2022-12-18T16:49:56;28.30;;;11.77;;
36547;SDS011;22551;52.206;4.856;2022-12-18T16:55:01;32.63;;;12.18;;
36547;SDS011;22551;52.206;4.856;2022-12-18T17:00:04;25.58;;;11.18;;
36547;SDS011;22551;52.206;4.856;2022-12-18T17:05:09;38.45;;;14.38;;
36547;SDS011;22551;52.206;4.856;2022-12-18T17:10:12;25.88;;;10.82;;
36547;SDS011;22551;52.206;4.856;2022-12-18T17:15:15;23.30;;;10.52;;
36547;SDS011;22551;52.206;4.856;2022-12-18T17:20:19;24.50;;;12.02;;
36547;SDS011;22551;52.206;4.856;2022-12-18T17:25:21;29.17;;;12.35;;
36547;SDS011;22551;52.206;4.856;2022-12-18T17:30:24;24.60;;;12.05;;
36547;SDS011;22551;52.206;4.856;2022-12-18T17:35:29;27.50;;;11.70;;
36547;SDS011;22551;52.206;4.856;2022-12-18T17:40:39;29.45;;;12.02;;
36547;SDS011;22551;52.206;4.856;2022-12-18T17:45:45;20.75;;;10.43;;
36547;SDS011;22551;52.206;4.856;2022-12-18T17:50:51;26.35;;;11.32;;
36547;SDS011;22551;52.206;4.856;2022-12-18T17:55:53;26.15;;;11.60;;
36547;SDS011;22551;52.206;4.856;2022-12-18T18:00:57;26.95;;;11.40;;
36547;SDS011;22551;52.206;4.856;2022-12-18T18:06:01;27.42;;;12.18;;
36547;SDS011;22551;52.206;4.856;2022-12-18T18:11:05;25.13;;;11.10;;
36547;SDS011;22551;52.206;4.856;2022-12-18T18:16:27;28.98;;;12.13;;
36547;SDS011;22551;52.206;4.856;2022-12-18T18:21:36;22.13;;;10.98;;
36547;SDS011;22551;52.206;4.856;2022-12-18T18:26:40;27.73;;;12.07;;
36547;SDS011;22551;52.206;4.856;2022-12-18T18:31:43;27.60;;;11.32;;
36547;SDS011;22551;52.206;4.856;2022-12-18T18:36:52;23.23;;;10.82;;
36547;SDS011;22551;52.206;4.856;2022-12-18T18:42:00;20.33;;;10.05;;
36547;SDS011;22551;52.206;4.856;2022-12-18T18:47:03;23.17;;;11.05;;
36547;SDS011;22551;52.206;4.856;2022-12-18T18:52:17;23.70;;;11.68;;
36547;SDS011;22551;52.206;4.856;2022-12-18T18:57:27;27.38;;;11.48;;
36547;SDS011;22551;52.206;4.856;2022-12-18T19:02:36;28.40;;;12.88;;
36547;SDS011;22551;52.206;4.856;2022-12-18T19:07:54;26.60;;;12.45;;
36547;SDS011;22551;52.206;4.856;2022-12-18T19:12:57;24.35;;;11.70;;
36547;SDS011;22551;52.206;4.856;2022-12-18T19:18:18;24.25;;;11.35;;
36547;SDS011;22551;52.206;4.856;2022-12-18T19:23:24;26.75;;;11.95;;
36547;SDS011;22551;52.206;4.856;2022-12-18T19:28:32;29.15;;;12.30;;
36547;SDS011;22551;52.206;4.856;2022-12-18T19:38:43;25.17;;;12.38;;
36547;SDS011;22551;52.206;4.856;2022-12-18T19:43:57;30.27;;;13.63;;
36547;SDS011;22551;52.206;4.856;2022-12-18T19:49:03;33.03;;;12.15;;
36547;SDS011;22551;52.206;4.856;2022-12-18T19:54:09;30.55;;;12.57;;
36547;SDS011;22551;52.206;4.856;2022-12-18T20:04:21;32.00;;;13.43;;
36547;SDS011;22551;52.206;4.856;2022-12-18T20:09:25;27.40;;;11.95;;
36547;SDS011;22551;52.206;4.856;2022-12-18T20:14:29;35.35;;;14.48;;
36547;SDS011;22551;52.206;4.856;2022-12-18T20:19:33;30.77;;;13.48;;
36547;SDS011;22551;52.206;4.856;2022-12-18T20:24:37;30.63;;;13.65;;
36547;SDS011;22551;52.206;4.856;2022-12-18T20:29:40;33.22;;;14.05;;
36547;SDS011;22551;52.206;4.856;2022-12-18T20:34:43;33.83;;;13.52;;
36547;SDS011;22551;52.206;4.856;2022-12-18T20:39:47;28.35;;;12.43;;
36547;SDS011;22551;52.206;4.856;2022-12-18T20:45:03;29.70;;;13.43;;
36547;SDS011;22551;52.206;4.856;2022-12-18T20:50:10;30.98;;;12.98;;
36547;SDS011;22551;52.206;4.856;2022-12-18T20:55:25;31.38;;;13.23;;
36547;SDS011;22551;52.206;4.856;2022-12-18T21:00:28;31.85;;;13.85;;
36547;SDS011;22551;52.206;4.856;2022-12-18T21:05:30;27.02;;;12.07;;
36547;SDS011;22551;52.206;4.856;2022-12-18T21:10:35;30.92;;;13.05;;
36547;SDS011;22551;52.206;4.856;2022-12-18T21:15:41;38.35;;;14.75;;
36547;SDS011;22551;52.206;4.856;2022-12-18T21:20:47;30.02;;;12.75;;
36547;SDS011;22551;52.206;4.856;2022-12-18T21:26:07;31.52;;;14.05;;
36547;SDS011;22551;52.206;4.856;2022-12-18T21:36:26;34.65;;;12.32;;
36547;SDS011;22551;52.206;4.856;2022-12-18T21:41:30;31.15;;;13.35;;
36547;SDS011;22551;52.206;4.856;2022-12-18T21:46:50;34.55;;;14.15;;
36547;SDS011;22551;52.206;4.856;2022-12-18T21:51:54;41.72;;;16.27;;
36547;SDS011;22551;52.206;4.856;2022-12-18T21:57:00;39.67;;;14.88;;
36547;SDS011;22551;52.206;4.856;2022-12-18T22:02:05;31.30;;;14.75;;
36547;SDS011;22551;52.206;4.856;2022-12-18T22:07:12;33.83;;;14.07;;
36547;SDS011;22551;52.206;4.856;2022-12-18T22:12:20;38.85;;;15.65;;
36547;SDS011;22551;52.206;4.856;2022-12-18T22:17:35;37.78;;;15.65;;
36547;SDS011;22551;52.206;4.856;2022-12-18T22:22:39;37.83;;;16.15;;
36547;SDS011;22551;52.206;4.856;2022-12-18T22:27:43;36.67;;;14.88;;
36547;SDS011;22551;52.206;4.856;2022-12-18T22:33:06;42.50;;;15.05;;
36547;SDS011;22551;52.206;4.856;2022-12-18T22:38:09;37.90;;;15.52;;
36547;SDS011;22551;52.206;4.856;2022-12-18T22:43:13;37.10;;;16.27;;
36547;SDS011;22551;52.206;4.856;2022-12-18T22:48:15;40.17;;;15.82;;
36547;SDS011;22551;52.206;4.856;2022-12-18T22:53:21;31.45;;;13.93;;
36547;SDS011;22551;52.206;4.856;2022-12-18T22:58:25;35.28;;;15.35;;
36547;SDS011;22551;52.206;4.856;2022-12-18T23:03:28;34.45;;;15.48;;
36547;SDS011;22551;52.206;4.856;2022-12-18T23:08:33;34.70;;;14.45;;
36547;SDS011;22551;52.206;4.856;2022-12-18T23:13:37;34.95;;;14.95;;
36547;SDS011;22551;52.206;4.856;2022-12-18T23:18:43;37.65;;;15.05;;
36547;SDS011;22551;52.206;4.856;2022-12-18T23:23:46;41.00;;;15.85;;
36547;SDS011;22551;52.206;4.856;2022-12-18T23:28:51;33.92;;;16.48;;
36547;SDS011;22551;52.206;4.856;2022-12-18T23:33:56;40.15;;;16.27;;
36547;SDS011;22551;52.206;4.856;2022-12-18T23:38:59;40.83;;;15.27;;
36547;SDS011;22551;52.206;4.856;2022-12-18T23:44:04;40.83;;;16.15;;
36547;SDS011;22551;52.206;4.856;2022-12-18T23:49:06;40.97;;;14.98;;
36547;SDS011;22551;52.206;4.856;2022-12-18T23:54:09;40.80;;;16.52;;
36547;SDS011;22551;52.206;4.856;2022-12-18T23:59:15;35.63;;;15.23;;
